SKBO Airport Information

Runway Information
Runway 13L Length 12467 ft width 148 ft
Elevation 8354 ft Threshold 0 ft Heading 127
Runway 31R Length 12467 ft Width 148 ft
Elevation 8354 ft Threshold 0 ft Heading 307
Runway 13R Length 12467 ft width 148 ft
Elevation 8350 ft Threshold 0 ft Heading 127
Runway 31L Length 12467 ft Width 148 ft
Elevation 8355 ft Threshold 0 ft Heading 307
Airport Frequencies
Type APP Name BOGOTA APP Frequency 119.5 MHZ
Type ATIS Name ATIS Frequency 113.9 MHZ
Type DEP Name BOGOTA DEP Frequency 119.5 MHZ
Type INFO Name BOGOTA FIS Frequency 126.9 MHZ
Type OPS Name MILGP RDO Frequency 1395 MHZ
Type RDO Name BOGOTA RDO Frequency 348.8 MHZ
Airport Navaids
Type VOR-DME Name Bogota Frequency 113900 KHZ
Type NDB Name Bogota Frequency 340 KHZ
Type NDB Name Delta Romeo Frequency 264 KHZ
Type NDB Name Romeo Frequency 274 KHZ
Type NDB Name Techo Frequency 284 KHZ
Type VOR-DME Name Zipaquira Frequency 114700 KHZ
Airport Weather Information & NOTAM
ADDS - METARS form results

(2116 UTC 16 August 2018)
 
METAR text: SKBO 162100Z 14007KT 9999 BKN020 18/04 A3034
Conditions at: SKBO (BOGOTA/ELDORADO , CO) observed 2100 UTC 16 August 2018
Temperature: 18.0°C (64°F)
Dewpoint: 4.0°C (39°F) [RH = 39%]
Pressure (altimeter): 30.34 inches Hg (1027.5 mb)
Winds: from the SE (140 degrees) at 8 MPH (7 knots; 3.6 m/s)
Visibility: 6 or more miles (10+ km)
Ceiling: 2000 feet AGL
Clouds: broken clouds at 2000 feet AGL
Weather: no significant weather observed at this time